sensor_id;sensor_type;location;lat;lon;timestamp;temperature;humidity
20200;DHT22;36284;37.236;-121.934;2023-08-30T00:01:10;29.70;92.60
20200;DHT22;36284;37.236;-121.934;2023-08-30T00:03:37;29.80;93.30
20200;DHT22;36284;37.236;-121.934;2023-08-30T00:06:06;29.90;92.90
20200;DHT22;36284;37.236;-121.934;2023-08-30T00:08:33;29.90;93.10
20200;DHT22;36284;37.236;-121.934;2023-08-30T00:11:01;30.20;92.50
20200;DHT22;36284;37.236;-121.934;2023-08-30T00:13:32;29.90;91.80
20200;DHT22;36284;37.236;-121.934;2023-08-30T00:16:00;30.00;92.70
20200;DHT22;36284;37.236;-121.934;2023-08-30T00:18:29;29.80;93.60
20200;DHT22;36284;37.236;-121.934;2023-08-30T00:23:32;30.10;92.70
20200;DHT22;36284;37.236;-121.934;2023-08-30T00:25:59;30.00;92.80
20200;DHT22;36284;37.236;-121.934;2023-08-30T00:28:27;29.90;93.30
20200;DHT22;36284;37.236;-121.934;2023-08-30T00:30:57;30.00;94.10
20200;DHT22;36284;37.236;-121.934;2023-08-30T00:33:24;29.60;94.30
20200;DHT22;36284;37.236;-121.934;2023-08-30T00:35:58;29.50;95.00
20200;DHT22;36284;37.236;-121.934;2023-08-30T00:38:27;29.20;95.30
20200;DHT22;36284;37.236;-121.934;2023-08-30T00:40:54;29.00;95.00
20200;DHT22;36284;37.236;-121.934;2023-08-30T00:43:21;29.00;95.10
20200;DHT22;36284;37.236;-121.934;2023-08-30T00:45:49;28.70;95.10
20200;DHT22;36284;37.236;-121.934;2023-08-30T00:48:17;28.70;95.30
20200;DHT22;36284;37.236;-121.934;2023-08-30T00:50:46;28.70;94.80
20200;DHT22;36284;37.236;-121.934;2023-08-30T00:53:13;28.70;94.60
20200;DHT22;36284;37.236;-121.934;2023-08-30T00:55:42;28.70;94.80
20200;DHT22;36284;37.236;-121.934;2023-08-30T00:58:10;28.50;94.60
20200;DHT22;36284;37.236;-121.934;2023-08-30T01:00:37;28.50;94.30
20200;DHT22;36284;37.236;-121.934;2023-08-30T01:03:06;28.40;94.70
20200;DHT22;36284;37.236;-121.934;2023-08-30T01:05:34;28.20;95.00
20200;DHT22;36284;37.236;-121.934;2023-08-30T01:08:01;28.30;95.40
20200;DHT22;36284;37.236;-121.934;2023-08-30T01:10:45;28.10;95.80
20200;DHT22;36284;37.236;-121.934;2023-08-30T01:13:18;28.10;96.10
20200;DHT22;36284;37.236;-121.934;2023-08-30T01:15:51;28.00;96.30
20200;DHT22;36284;37.236;-121.934;2023-08-30T01:18:22;28.00;96.40
20200;DHT22;36284;37.236;-121.934;2023-08-30T01:20:53;28.00;96.40
20200;DHT22;36284;37.236;-121.934;2023-08-30T01:28:52;27.60;97.00
20200;DHT22;36284;37.236;-121.934;2023-08-30T01:31:21;27.50;96.90
20200;DHT22;36284;37.236;-121.934;2023-08-30T01:33:50;27.50;97.60
20200;DHT22;36284;37.236;-121.934;2023-08-30T01:36:17;27.50;97.20
20200;DHT22;36284;37.236;-121.934;2023-08-30T01:38:45;27.30;97.20
20200;DHT22;36284;37.236;-121.934;2023-08-30T01:41:13;27.10;98.00
20200;DHT22;36284;37.236;-121.934;2023-08-30T01:43:40;27.10;98.00
20200;DHT22;36284;37.236;-121.934;2023-08-30T01:46:07;27.00;98.30
20200;DHT22;36284;37.236;-121.934;2023-08-30T01:48:35;26.90;98.70
20200;DHT22;36284;37.236;-121.934;2023-08-30T01:51:03;26.80;99.20
20200;DHT22;36284;37.236;-121.934;2023-08-30T01:53:31;26.80;99.90
20200;DHT22;36284;37.236;-121.934;2023-08-30T01:55:58;26.70;99.50
20200;DHT22;36284;37.236;-121.934;2023-08-30T01:58:25;26.50;99.40
20200;DHT22;36284;37.236;-121.934;2023-08-30T02:00:53;26.40;99.80
20200;DHT22;36284;37.236;-121.934;2023-08-30T02:03:20;26.30;99.90
20200;DHT22;36284;37.236;-121.934;2023-08-30T02:06:07;26.30;99.90
20200;DHT22;36284;37.236;-121.934;2023-08-30T02:08:50;26.20;99.90
20200;DHT22;36284;37.236;-121.934;2023-08-30T02:11:23;26.00;99.90
20200;DHT22;36284;37.236;-121.934;2023-08-30T02:13:54;25.80;99.90
20200;DHT22;36284;37.236;-121.934;2023-08-30T02:16:25;25.70;99.90
20200;DHT22;36284;37.236;-121.934;2023-08-30T02:18:53;25.60;99.90
20200;DHT22;36284;37.236;-121.934;2023-08-30T02:21:20;25.40;99.90
20200;DHT22;36284;37.236;-121.934;2023-08-30T02:23:51;25.30;99.90
20200;DHT22;36284;37.236;-121.934;2023-08-30T02:26:21;25.20;99.90
20200;DHT22;36284;37.236;-121.934;2023-08-30T02:28:48;25.10;99.90
20200;DHT22;36284;37.236;-121.934;2023-08-30T02:31:15;24.90;99.90
20200;DHT22;36284;37.236;-121.934;2023-08-30T02:33:42;24.80;99.90
20200;DHT22;36284;37.236;-121.934;2023-08-30T02:36:09;24.80;99.90
20200;DHT22;36284;37.236;-121.934;2023-08-30T02:38:37;24.60;99.90
20200;DHT22;36284;37.236;-121.934;2023-08-30T02:41:04;24.50;99.90
20200;DHT22;36284;37.236;-121.934;2023-08-30T02:43:31;24.30;99.90
20200;DHT22;36284;37.236;-121.934;2023-08-30T02:45:57;24.20;99.90
20200;DHT22;36284;37.236;-121.934;2023-08-30T02:48:24;24.20;99.90
20200;DHT22;36284;37.236;-121.934;2023-08-30T02:50:51;24.00;99.90
20200;DHT22;36284;37.236;-121.934;2023-08-30T02:53:18;23.70;99.90
20200;DHT22;36284;37.236;-121.934;2023-08-30T02:55:47;23.60;99.90
20200;DHT22;36284;37.236;-121.934;2023-08-30T02:58:14;23.40;99.90
20200;DHT22;36284;37.236;-121.934;2023-08-30T03:00:41;23.10;99.90
20200;DHT22;36284;37.236;-121.934;2023-08-30T03:03:08;22.90;99.90
20200;DHT22;36284;37.236;-121.934;2023-08-30T03:05:35;22.70;99.90
20200;DHT22;36284;37.236;-121.934;2023-08-30T03:08:02;22.60;99.90
20200;DHT22;36284;37.236;-121.934;2023-08-30T03:10:29;22.50;99.90
20200;DHT22;36284;37.236;-121.934;2023-08-30T03:12:56;22.50;99.90
20200;DHT22;36284;37.236;-121.934;2023-08-30T03:15:23;22.40;99.90
20200;DHT22;36284;37.236;-121.934;2023-08-30T03:17:50;22.30;99.90
20200;DHT22;36284;37.236;-121.934;2023-08-30T03:20:17;22.10;99.90
20200;DHT22;36284;37.236;-121.934;2023-08-30T03:22:44;21.90;99.90
20200;DHT22;36284;37.236;-121.934;2023-08-30T03:25:11;21.80;99.90
20200;DHT22;36284;37.236;-121.934;2023-08-30T03:27:38;21.70;99.90
20200;DHT22;36284;37.236;-121.934;2023-08-30T03:30:05;21.60;99.90
20200;DHT22;36284;37.236;-121.934;2023-08-30T03:32:32;21.50;99.90
20200;DHT22;36284;37.236;-121.934;2023-08-30T03:34:59;21.50;99.90
20200;DHT22;36284;37.236;-121.934;2023-08-30T03:37:26;21.50;99.90
20200;DHT22;36284;37.236;-121.934;2023-08-30T03:39:53;21.40;99.90
20200;DHT22;36284;37.236;-121.934;2023-08-30T03:42:20;21.30;99.90
20200;DHT22;36284;37.236;-121.934;2023-08-30T03:44:47;21.30;99.90
20200;DHT22;36284;37.236;-121.934;2023-08-30T03:47:14;21.10;99.90
20200;DHT22;36284;37.236;-121.934;2023-08-30T03:49:41;21.10;99.90
20200;DHT22;36284;37.236;-121.934;2023-08-30T03:52:08;21.00;99.90
20200;DHT22;36284;37.236;-121.934;2023-08-30T03:54:36;20.90;99.90
20200;DHT22;36284;37.236;-121.934;2023-08-30T03:57:03;20.90;99.90
20200;DHT22;36284;37.236;-121.934;2023-08-30T03:59:30;20.70;99.90
20200;DHT22;36284;37.236;-121.934;2023-08-30T04:01:57;20.60;99.90
20200;DHT22;36284;37.236;-121.934;2023-08-30T04:04:24;20.50;99.90
20200;DHT22;36284;37.236;-121.934;2023-08-30T04:06:51;20.50;99.90
20200;DHT22;36284;37.236;-121.934;2023-08-30T04:09:18;20.50;99.90
20200;DHT22;36284;37.236;-121.934;2023-08-30T04:11:45;20.40;99.90
20200;DHT22;36284;37.236;-121.934;2023-08-30T04:14:12;20.20;99.90
20200;DHT22;36284;37.236;-121.934;2023-08-30T04:16:39;20.20;99.90
20200;DHT22;36284;37.236;-121.934;2023-08-30T04:19:06;20.20;99.90
20200;DHT22;36284;37.236;-121.934;2023-08-30T04:21:33;20.20;99.90
20200;DHT22;36284;37.236;-121.934;2023-08-30T04:24:01;20.10;99.90
20200;DHT22;36284;37.236;-121.934;2023-08-30T04:26:28;20.00;99.90
20200;DHT22;36284;37.236;-121.934;2023-08-30T04:28:55;20.00;99.90
20200;DHT22;36284;37.236;-121.934;2023-08-30T04:31:22;20.00;99.90
20200;DHT22;36284;37.236;-121.934;2023-08-30T04:33:49;19.90;99.90
20200;DHT22;36284;37.236;-121.934;2023-08-30T04:36:18;19.90;99.90
20200;DHT22;36284;37.236;-121.934;2023-08-30T04:38:46;19.80;99.90
20200;DHT22;36284;37.236;-121.934;2023-08-30T04:41:13;19.70;99.90
20200;DHT22;36284;37.236;-121.934;2023-08-30T04:43:40;19.60;99.90
20200;DHT22;36284;37.236;-121.934;2023-08-30T04:46:07;19.50;99.90
20200;DHT22;36284;37.236;-121.934;2023-08-30T04:48:34;19.50;99.90
20200;DHT22;36284;37.236;-121.934;2023-08-30T04:51:02;19.40;99.90
20200;DHT22;36284;37.236;-121.934;2023-08-30T04:53:32;19.20;99.90
20200;DHT22;36284;37.236;-121.934;2023-08-30T04:55:59;19.00;99.90
20200;DHT22;36284;37.236;-121.934;2023-08-30T04:58:26;18.90;99.90
20200;DHT22;36284;37.236;-121.934;2023-08-30T05:00:56;18.90;99.90
20200;DHT22;36284;37.236;-121.934;2023-08-30T05:03:23;18.90;99.90
20200;DHT22;36284;37.236;-121.934;2023-08-30T05:05:50;19.00;99.90
20200;DHT22;36284;37.236;-121.934;2023-08-30T05:08:17;19.00;99.90
20200;DHT22;36284;37.236;-121.934;2023-08-30T05:10:44;18.80;99.90
20200;DHT22;36284;37.236;-121.934;2023-08-30T05:13:15;18.70;99.90
20200;DHT22;36284;37.236;-121.934;2023-08-30T05:15:42;18.80;99.90
20200;DHT22;36284;37.236;-121.934;2023-08-30T05:18:09;18.80;99.90
20200;DHT22;36284;37.236;-121.934;2023-08-30T05:20:36;18.80;99.90
20200;DHT22;36284;37.236;-121.934;2023-08-30T05:23:03;18.60;99.90
20200;DHT22;36284;37.236;-121.934;2023-08-30T05:25:30;18.60;99.90
20200;DHT22;36284;37.236;-121.934;2023-08-30T05:27:57;18.60;99.90
20200;DHT22;36284;37.236;-121.934;2023-08-30T05:30:24;18.50;99.90
20200;DHT22;36284;37.236;-121.934;2023-08-30T05:32:51;18.60;99.90
20200;DHT22;36284;37.236;-121.934;2023-08-30T05:35:18;18.60;99.90
20200;DHT22;36284;37.236;-121.934;2023-08-30T05:37:45;18.50;99.90
20200;DHT22;36284;37.236;-121.934;2023-08-30T05:40:13;18.50;99.90
20200;DHT22;36284;37.236;-121.934;2023-08-30T05:42:43;18.10;99.90
20200;DHT22;36284;37.236;-121.934;2023-08-30T05:45:11;18.00;99.90
20200;DHT22;36284;37.236;-121.934;2023-08-30T05:47:38;18.00;99.90
20200;DHT22;36284;37.236;-121.934;2023-08-30T05:50:05;17.90;99.90
20200;DHT22;36284;37.236;-121.934;2023-08-30T05:52:32;18.00;99.90
20200;DHT22;36284;37.236;-121.934;2023-08-30T05:54:59;18.00;99.90
20200;DHT22;36284;37.236;-121.934;2023-08-30T05:57:26;17.90;99.90
20200;DHT22;36284;37.236;-121.934;2023-08-30T05:59:55;17.80;99.90
20200;DHT22;36284;37.236;-121.934;2023-08-30T06:02:22;17.70;99.90
20200;DHT22;36284;37.236;-121.934;2023-08-30T06:04:49;17.60;99.90
20200;DHT22;36284;37.236;-121.934;2023-08-30T06:07:16;17.70;99.90
20200;DHT22;36284;37.236;-121.934;2023-08-30T06:09:43;17.80;99.90
20200;DHT22;36284;37.236;-121.934;2023-08-30T06:12:12;17.90;99.90
20200;DHT22;36284;37.236;-121.934;2023-08-30T06:14:39;17.80;99.90
20200;DHT22;36284;37.236;-121.934;2023-08-30T06:17:06;17.70;99.90
20200;DHT22;36284;37.236;-121.934;2023-08-30T06:19:33;17.70;99.90
20200;DHT22;36284;37.236;-121.934;2023-08-30T06:21:59;17.80;99.90
20200;DHT22;36284;37.236;-121.934;2023-08-30T06:24:26;17.70;99.90
20200;DHT22;36284;37.236;-121.934;2023-08-30T06:26:54;17.70;99.90
20200;DHT22;36284;37.236;-121.934;2023-08-30T06:29:21;17.70;99.90
20200;DHT22;36284;37.236;-121.934;2023-08-30T06:31:48;17.80;99.90
20200;DHT22;36284;37.236;-121.934;2023-08-30T06:34:14;17.70;99.90
20200;DHT22;36284;37.236;-121.934;2023-08-30T06:36:41;17.60;99.90
20200;DHT22;36284;37.236;-121.934;2023-08-30T06:39:08;17.50;99.90
20200;DHT22;36284;37.236;-121.934;2023-08-30T06:41:35;17.50;99.90
20200;DHT22;36284;37.236;-121.934;2023-08-30T06:44:02;17.60;99.90
20200;DHT22;36284;37.236;-121.934;2023-08-30T06:46:30;17.60;99.90
20200;DHT22;36284;37.236;-121.934;2023-08-30T06:48:57;17.50;99.90
20200;DHT22;36284;37.236;-121.934;2023-08-30T06:51:24;17.50;99.90
20200;DHT22;36284;37.236;-121.934;2023-08-30T06:53:51;17.50;99.90
20200;DHT22;36284;37.236;-121.934;2023-08-30T06:56:18;17.40;99.90
20200;DHT22;36284;37.236;-121.934;2023-08-30T06:58:45;17.20;99.90
20200;DHT22;36284;37.236;-121.934;2023-08-30T07:01:12;16.90;99.90
20200;DHT22;36284;37.236;-121.934;2023-08-30T07:03:39;16.90;99.90
20200;DHT22;36284;37.236;-121.934;2023-08-30T07:06:06;16.80;99.90
20200;DHT22;36284;37.236;-121.934;2023-08-30T07:08:33;16.90;99.90
20200;DHT22;36284;37.236;-121.934;2023-08-30T07:11:00;16.90;99.90
20200;DHT22;36284;37.236;-121.934;2023-08-30T07:13:27;16.90;99.90
20200;DHT22;36284;37.236;-121.934;2023-08-30T07:15:54;16.90;99.90
20200;DHT22;36284;37.236;-121.934;2023-08-30T07:18:21;16.70;99.90
20200;DHT22;36284;37.236;-121.934;2023-08-30T07:20:48;16.70;99.90
20200;DHT22;36284;37.236;-121.934;2023-08-30T07:23:15;16.60;99.90
20200;DHT22;36284;37.236;-121.934;2023-08-30T07:25:41;16.60;99.90
20200;DHT22;36284;37.236;-121.934;2023-08-30T07:28:10;16.50;99.90
20200;DHT22;36284;37.236;-121.934;2023-08-30T07:30:37;16.50;99.90
20200;DHT22;36284;37.236;-121.934;2023-08-30T07:33:04;16.40;99.90
20200;DHT22;36284;37.236;-121.934;2023-08-30T07:35:32;16.30;99.90
20200;DHT22;36284;37.236;-121.934;2023-08-30T07:37:59;16.30;99.90
20200;DHT22;36284;37.236;-121.934;2023-08-30T07:40:26;16.20;99.90
20200;DHT22;36284;37.236;-121.934;2023-08-30T07:42:54;16.20;99.90
20200;DHT22;36284;37.236;-121.934;2023-08-30T07:45:22;16.20;99.90
20200;DHT22;36284;37.236;-121.934;2023-08-30T07:47:48;16.10;99.90
20200;DHT22;36284;37.236;-121.934;2023-08-30T07:50:15;16.10;99.90
20200;DHT22;36284;37.236;-121.934;2023-08-30T07:52:42;16.20;99.90
20200;DHT22;36284;37.236;-121.934;2023-08-30T07:55:09;16.10;99.90
20200;DHT22;36284;37.236;-121.934;2023-08-30T07:57:36;16.10;99.90
20200;DHT22;36284;37.236;-121.934;2023-08-30T08:00:03;16.00;99.90
20200;DHT22;36284;37.236;-121.934;2023-08-30T08:02:30;16.10;99.90
20200;DHT22;36284;37.236;-121.934;2023-08-30T08:04:57;16.10;99.90
20200;DHT22;36284;37.236;-121.934;2023-08-30T08:07:24;16.20;99.90
20200;DHT22;36284;37.236;-121.934;2023-08-30T08:09:51;16.20;99.90
20200;DHT22;36284;37.236;-121.934;2023-08-30T08:12:18;16.00;99.90
20200;DHT22;36284;37.236;-121.934;2023-08-30T08:14:45;16.00;99.90
20200;DHT22;36284;37.236;-121.934;2023-08-30T08:17:12;16.10;99.90
20200;DHT22;36284;37.236;-121.934;2023-08-30T08:19:39;16.20;99.90
20200;DHT22;36284;37.236;-121.934;2023-08-30T08:22:06;16.10;99.90
20200;DHT22;36284;37.236;-121.934;2023-08-30T08:24:33;16.00;99.90
20200;DHT22;36284;37.236;-121.934;2023-08-30T08:27:00;15.90;99.90
20200;DHT22;36284;37.236;-121.934;2023-08-30T08:29:28;15.80;99.90
20200;DHT22;36284;37.236;-121.934;2023-08-30T08:31:55;15.80;99.90
20200;DHT22;36284;37.236;-121.934;2023-08-30T08:34:22;16.00;99.90
20200;DHT22;36284;37.236;-121.934;2023-08-30T08:36:48;15.90;99.90
20200;DHT22;36284;37.236;-121.934;2023-08-30T08:39:15;15.80;99.90
20200;DHT22;36284;37.236;-121.934;2023-08-30T08:41:44;15.80;99.90
20200;DHT22;36284;37.236;-121.934;2023-08-30T08:44:12;15.90;99.90
20200;DHT22;36284;37.236;-121.934;2023-08-30T08:46:40;16.10;99.90
20200;DHT22;36284;37.236;-121.934;2023-08-30T08:49:12;16.00;99.90
20200;DHT22;36284;37.236;-121.934;2023-08-30T08:51:40;15.80;99.90
20200;DHT22;36284;37.236;-121.934;2023-08-30T08:54:09;15.70;99.90
20200;DHT22;36284;37.236;-121.934;2023-08-30T08:56:37;15.60;99.90
20200;DHT22;36284;37.236;-121.934;2023-08-30T08:59:05;15.70;99.90
20200;DHT22;36284;37.236;-121.934;2023-08-30T09:01:35;15.70;99.90
20200;DHT22;36284;37.236;-121.934;2023-08-30T09:04:20;15.60;99.90
20200;DHT22;36284;37.236;-121.934;2023-08-30T09:06:47;15.60;99.90
20200;DHT22;36284;37.236;-121.934;2023-08-30T09:09:14;15.70;99.90
20200;DHT22;36284;37.236;-121.934;2023-08-30T09:11:41;15.80;99.90
20200;DHT22;36284;37.236;-121.934;2023-08-30T09:14:10;16.00;99.90
20200;DHT22;36284;37.236;-121.934;2023-08-30T09:16:37;15.80;99.90
20200;DHT22;36284;37.236;-121.934;2023-08-30T09:19:04;15.70;99.90
20200;DHT22;36284;37.236;-121.934;2023-08-30T09:21:32;15.70;99.90
20200;DHT22;36284;37.236;-121.934;2023-08-30T09:24:02;15.60;99.90
20200;DHT22;36284;37.236;-121.934;2023-08-30T09:26:30;15.50;99.90
20200;DHT22;36284;37.236;-121.934;2023-08-30T09:29:03;15.60;99.90
20200;DHT22;36284;37.236;-121.934;2023-08-30T09:31:38;15.60;99.90
20200;DHT22;36284;37.236;-121.934;2023-08-30T09:34:07;15.70;99.90
20200;DHT22;36284;37.236;-121.934;2023-08-30T09:36:38;15.60;99.90
20200;DHT22;36284;37.236;-121.934;2023-08-30T09:41:33;15.60;99.90
20200;DHT22;36284;37.236;-121.934;2023-08-30T09:44:05;15.60;99.90
20200;DHT22;36284;37.236;-121.934;2023-08-30T09:46:39;15.40;99.90
20200;DHT22;36284;37.236;-121.934;2023-08-30T09:49:06;15.60;99.90
20200;DHT22;36284;37.236;-121.934;2023-08-30T09:51:35;15.60;99.90
20200;DHT22;36284;37.236;-121.934;2023-08-30T09:54:06;15.60;99.90
20200;DHT22;36284;37.236;-121.934;2023-08-30T09:56:37;15.50;99.90
20200;DHT22;36284;37.236;-121.934;2023-08-30T09:59:04;15.40;99.90
20200;DHT22;36284;37.236;-121.934;2023-08-30T10:01:31;15.50;99.90
20200;DHT22;36284;37.236;-121.934;2023-08-30T10:03:59;15.40;99.90
20200;DHT22;36284;37.236;-121.934;2023-08-30T10:06:26;15.50;99.90
20200;DHT22;36284;37.236;-121.934;2023-08-30T10:08:54;15.70;99.90
20200;DHT22;36284;37.236;-121.934;2023-08-30T10:11:21;15.60;99.90
20200;DHT22;36284;37.236;-121.934;2023-08-30T10:13:48;15.60;99.90
20200;DHT22;36284;37.236;-121.934;2023-08-30T10:16:19;15.40;99.90
20200;DHT22;36284;37.236;-121.934;2023-08-30T10:18:52;15.40;99.90
20200;DHT22;36284;37.236;-121.934;2023-08-30T10:21:19;15.50;99.90
20200;DHT22;36284;37.236;-121.934;2023-08-30T10:23:49;15.40;99.90
20200;DHT22;36284;37.236;-121.934;2023-08-30T10:26:18;15.30;99.90
20200;DHT22;36284;37.236;-121.934;2023-08-30T10:28:45;15.40;99.90
20200;DHT22;36284;37.236;-121.934;2023-08-30T10:31:13;15.30;99.90
20200;DHT22;36284;37.236;-121.934;2023-08-30T10:33:52;15.20;99.90
20200;DHT22;36284;37.236;-121.934;2023-08-30T10:36:26;15.20;99.90
20200;DHT22;36284;37.236;-121.934;2023-08-30T10:38:54;15.10;99.90
20200;DHT22;36284;37.236;-121.934;2023-08-30T10:41:23;15.10;99.90
20200;DHT22;36284;37.236;-121.934;2023-08-30T10:43:52;15.00;99.90
20200;DHT22;36284;37.236;-121.934;2023-08-30T10:46:39;15.00;99.90
20200;DHT22;36284;37.236;-121.934;2023-08-30T10:49:12;14.90;99.90
20200;DHT22;36284;37.236;-121.934;2023-08-30T10:51:42;14.80;99.90
20200;DHT22;36284;37.236;-121.934;2023-08-30T10:54:14;14.80;99.90
20200;DHT22;36284;37.236;-121.934;2023-08-30T10:56:58;14.90;99.90
20200;DHT22;36284;37.236;-121.934;2023-08-30T10:59:28;14.80;99.90
20200;DHT22;36284;37.236;-121.934;2023-08-30T11:01:56;14.70;99.90
20200;DHT22;36284;37.236;-121.934;2023-08-30T11:04:27;14.60;99.90
20200;DHT22;36284;37.236;-121.934;2023-08-30T11:06:55;14.60;99.90
20200;DHT22;36284;37.236;-121.934;2023-08-30T11:09:24;14.50;99.90
20200;DHT22;36284;37.236;-121.934;2023-08-30T11:11:51;14.60;99.90
20200;DHT22;36284;37.236;-121.934;2023-08-30T11:14:19;14.50;99.90
20200;DHT22;36284;37.236;-121.934;2023-08-30T11:16:46;14.70;99.90
20200;DHT22;36284;37.236;-121.934;2023-08-30T11:19:13;14.60;99.90
20200;DHT22;36284;37.236;-121.934;2023-08-30T11:21:43;14.70;99.90
20200;DHT22;36284;37.236;-121.934;2023-08-30T11:24:11;14.70;99.90
20200;DHT22;36284;37.236;-121.934;2023-08-30T11:26:38;14.80;99.90
20200;DHT22;36284;37.236;-121.934;2023-08-30T11:29:07;14.80;99.90
20200;DHT22;36284;37.236;-121.934;2023-08-30T11:31:35;14.60;99.90
20200;DHT22;36284;37.236;-121.934;2023-08-30T11:34:02;14.60;99.90
20200;DHT22;36284;37.236;-121.934;2023-08-30T11:36:31;14.60;99.90
20200;DHT22;36284;37.236;-121.934;2023-08-30T11:38:58;14.60;99.90
20200;DHT22;36284;37.236;-121.934;2023-08-30T11:41:26;14.50;99.90
20200;DHT22;36284;37.236;-121.934;2023-08-30T11:43:54;14.60;99.90
20200;DHT22;36284;37.236;-121.934;2023-08-30T11:46:21;14.60;99.90
20200;DHT22;36284;37.236;-121.934;2023-08-30T11:48:50;14.70;99.90
20200;DHT22;36284;37.236;-121.934;2023-08-30T11:51:18;14.60;99.90
20200;DHT22;36284;37.236;-121.934;2023-08-30T11:53:46;14.50;99.90
20200;DHT22;36284;37.236;-121.934;2023-08-30T11:56:13;14.60;99.90
20200;DHT22;36284;37.236;-121.934;2023-08-30T11:58:40;14.40;99.90
20200;DHT22;36284;37.236;-121.934;2023-08-30T12:01:08;14.50;99.90
20200;DHT22;36284;37.236;-121.934;2023-08-30T12:03:35;14.40;99.90
20200;DHT22;36284;37.236;-121.934;2023-08-30T12:06:08;14.50;99.90
20200;DHT22;36284;37.236;-121.934;2023-08-30T12:08:35;14.30;99.90
20200;DHT22;36284;37.236;-121.934;2023-08-30T12:11:02;14.30;99.90
20200;DHT22;36284;37.236;-121.934;2023-08-30T12:13:32;14.30;99.90
20200;DHT22;36284;37.236;-121.934;2023-08-30T12:16:00;14.20;99.90
20200;DHT22;36284;37.236;-121.934;2023-08-30T12:18:31;14.10;99.90
20200;DHT22;36284;37.236;-121.934;2023-08-30T12:21:02;14.10;99.90
20200;DHT22;36284;37.236;-121.934;2023-08-30T12:28:28;14.10;99.90
20200;DHT22;36284;37.236;-121.934;2023-08-30T12:30:56;14.10;99.90
20200;DHT22;36284;37.236;-121.934;2023-08-30T12:33:24;14.10;99.90
20200;DHT22;36284;37.236;-121.934;2023-08-30T12:35:58;14.20;99.90
20200;DHT22;36284;37.236;-121.934;2023-08-30T12:38:25;14.20;99.90
20200;DHT22;36284;37.236;-121.934;2023-08-30T12:40:53;14.30;99.90
20200;DHT22;36284;37.236;-121.934;2023-08-30T12:43:21;14.30;99.90
20200;DHT22;36284;37.236;-121.934;2023-08-30T12:45:49;14.30;99.90
20200;DHT22;36284;37.236;-121.934;2023-08-30T12:48:18;14.20;99.90
20200;DHT22;36284;37.236;-121.934;2023-08-30T12:50:46;14.20;99.90
20200;DHT22;36284;37.236;-121.934;2023-08-30T12:53:14;14.10;99.90
20200;DHT22;36284;37.236;-121.934;2023-08-30T12:55:44;14.10;99.90
20200;DHT22;36284;37.236;-121.934;2023-08-30T12:58:11;14.00;99.90
20200;DHT22;36284;37.236;-121.934;2023-08-30T13:00:40;13.90;99.90
20200;DHT22;36284;37.236;-121.934;2023-08-30T13:03:07;14.00;99.90
20200;DHT22;36284;37.236;-121.934;2023-08-30T13:05:34;14.00;99.90
20200;DHT22;36284;37.236;-121.934;2023-08-30T13:08:02;14.10;99.90
20200;DHT22;36284;37.236;-121.934;2023-08-30T13:10:30;13.90;99.90
20200;DHT22;36284;37.236;-121.934;2023-08-30T13:12:57;14.00;99.90
20200;DHT22;36284;37.236;-121.934;2023-08-30T13:15:23;14.00;99.90
20200;DHT22;36284;37.236;-121.934;2023-08-30T13:17:50;14.00;99.90
20200;DHT22;36284;37.236;-121.934;2023-08-30T13:20:18;13.90;99.90
20200;DHT22;36284;37.236;-121.934;2023-08-30T13:22:46;13.90;99.90
20200;DHT22;36284;37.236;-121.934;2023-08-30T13:25:13;14.00;99.90
20200;DHT22;36284;37.236;-121.934;2023-08-30T13:27:40;14.10;99.90
20200;DHT22;36284;37.236;-121.934;2023-08-30T13:30:07;14.00;99.90
20200;DHT22;36284;37.236;-121.934;2023-08-30T13:32:34;14.00;99.90
20200;DHT22;36284;37.236;-121.934;2023-08-30T13:35:01;14.10;99.90
20200;DHT22;36284;37.236;-121.934;2023-08-30T13:37:29;14.10;99.90
20200;DHT22;36284;37.236;-121.934;2023-08-30T13:39:56;14.20;99.90
20200;DHT22;36284;37.236;-121.934;2023-08-30T13:42:23;14.20;99.90
20200;DHT22;36284;37.236;-121.934;2023-08-30T13:44:52;14.10;99.90
20200;DHT22;36284;37.236;-121.934;2023-08-30T13:47:19;14.30;99.90
20200;DHT22;36284;37.236;-121.934;2023-08-30T13:49:47;14.30;99.90
20200;DHT22;36284;37.236;-121.934;2023-08-30T13:52:14;14.30;99.90
20200;DHT22;36284;37.236;-121.934;2023-08-30T13:54:41;14.50;99.90
20200;DHT22;36284;37.236;-121.934;2023-08-30T13:57:08;14.60;99.90
20200;DHT22;36284;37.236;-121.934;2023-08-30T13:59:35;14.50;99.90
20200;DHT22;36284;37.236;-121.934;2023-08-30T14:02:03;14.50;99.90
20200;DHT22;36284;37.236;-121.934;2023-08-30T14:04:30;14.50;99.90
20200;DHT22;36284;37.236;-121.934;2023-08-30T14:06:59;14.60;99.90
20200;DHT22;36284;37.236;-121.934;2023-08-30T14:09:26;14.90;99.90
20200;DHT22;36284;37.236;-121.934;2023-08-30T14:11:52;15.00;99.90
20200;DHT22;36284;37.236;-121.934;2023-08-30T14:14:21;15.10;99.90
20200;DHT22;36284;37.236;-121.934;2023-08-30T14:16:48;15.30;99.90
20200;DHT22;36284;37.236;-121.934;2023-08-30T14:19:16;15.50;99.90
20200;DHT22;36284;37.236;-121.934;2023-08-30T14:21:43;15.70;99.90
20200;DHT22;36284;37.236;-121.934;2023-08-30T14:24:10;15.60;99.90
20200;DHT22;36284;37.236;-121.934;2023-08-30T14:26:37;15.60;99.90
20200;DHT22;36284;37.236;-121.934;2023-08-30T14:29:04;15.80;99.90
20200;DHT22;36284;37.236;-121.934;2023-08-30T14:31:30;16.40;99.90
20200;DHT22;36284;37.236;-121.934;2023-08-30T14:33:57;16.50;99.90
20200;DHT22;36284;37.236;-121.934;2023-08-30T14:36:24;16.50;99.90
20200;DHT22;36284;37.236;-121.934;2023-08-30T14:38:51;16.70;99.90
20200;DHT22;36284;37.236;-121.934;2023-08-30T14:41:18;16.80;99.90
20200;DHT22;36284;37.236;-121.934;2023-08-30T14:43:45;17.00;99.90
20200;DHT22;36284;37.236;-121.934;2023-08-30T14:46:12;17.40;99.90
20200;DHT22;36284;37.236;-121.934;2023-08-30T14:48:42;17.60;99.90
20200;DHT22;36284;37.236;-121.934;2023-08-30T14:51:09;17.70;99.90
20200;DHT22;36284;37.236;-121.934;2023-08-30T14:53:36;18.00;99.90
20200;DHT22;36284;37.236;-121.934;2023-08-30T14:56:03;18.40;99.90
20200;DHT22;36284;37.236;-121.934;2023-08-30T14:58:34;18.70;99.90
20200;DHT22;36284;37.236;-121.934;2023-08-30T15:01:01;19.00;99.90
20200;DHT22;36284;37.236;-121.934;2023-08-30T15:03:29;19.50;99.90
20200;DHT22;36284;37.236;-121.934;2023-08-30T15:05:56;19.50;99.90
20200;DHT22;36284;37.236;-121.934;2023-08-30T15:08:24;20.10;99.90